Aeroporto :







RITROVATECI SU...

 
LOGIN :

Iscrizione | Disclaimer

   EN    FR    IT 

 









Sommario :    VFR   VFR Marginale   IFR   IFR Intensivo   IFR Molto Intensivo
Visibilità : 
Base nubi : 
>= 8 km
>= 3000ft
5 / 8 km
1000 / 3000 ft
1500m / 5 km
500 / 1000 ft
800 / 1500m
200 / 500 ft
< 800m
< 200 ft
Simboli :   Temporali  Nebbia  Neve Forte  Precipitazioni Forti  Vento > 20 kt







- Altitudine del aeroporto : 38 ft
- Codice IATA : YMH


CYMH - Mary's Harbour

ULTIMO METAR :
  • 251300Z AUTO 25007KT 9SM BKN130 18/07 A3013 RMK SLP203 DENSITY ALT 100FT

METARs OBSOLETI :
  • 251200Z AUTO 25006KT 9SM FEW150 15/07 A3014 RMK SLP208
  • 251100Z AUTO 26003KT 220V300 9SM CLR 12/07 A3014 RMK SLP209

TAF TAF CYMH
Valido dal 25 a 09 ore il 25 a 21 ore UTC


250838Z 2509/2521 VRB03KT P6SM SKC
PROB30 2509/2511 11/2SM BR FEW002
FM251100 27008KT P6SM SCT200
BECMG 2514/2516 27012G22KT RMK FCST BASED ON AUTO OBS. NXT FCST BY 251400Z
Nessun NOTAM noto per questo aeroporto.



MetMap, La meteo Aeronautica in un colpo d'occhio ! - Copyright ORBIFLY Dicembre 2007 - Disclaimer

ORBIFLY MET'MAP TEAM :

Programmazione e sviluppo : Alexandra Zaïnal
Concezione e sviluppo : Baudouin d'Aumeries
Co-Programmazione e sviluppo : Marc-Olivier Méhu
Supporto tecnico e logistico : Manuel Goepfert
Aiuto per la traduzione : Arnaldo La Scala

Contatto : metmap@orbifly.com




FONTI E CREDITI :

   NOAA